Time;durP1;ratioP1;P1;durP2;ratioP2;P2;SDS_P1;SDS_P2;PMS_P1;PMS_P2;Temp;Humidity;BMP_temperature;BMP_pressure;BME280_temperature;BME280_humidity;BME280_pressure;Samples;Min_cycle;Max_cycle;Signal;HPM_P1;HPM_P2
2021/05/26 00:00:22;;;;;;;1.67;0.80;;;;;;;9.94;77.35;98565.91;5054430;28;20127;-64
2021/05/26 00:02:48;;;;;;;3.45;0.95;;;;;;;9.82;78.96;98560.84;5054087;28;20021;-64
2021/05/26 00:05:14;;;;;;;1.63;0.85;;;;;;;9.78;77.75;98556.56;5047738;28;20024;-64
2021/05/26 00:07:39;;;;;;;2.17;0.85;;;;;;;9.77;77.72;98557.44;5048268;28;20005;-64
2021/05/26 00:10:06;;;;;;;4.18;0.95;;;;;;;9.80;77.55;98557.38;5047166;28;20035;-64
2021/05/26 00:12:31;;;;;;;3.20;1.00;;;;;;;9.84;76.59;98557.28;5049556;28;20265;-64
2021/05/26 00:14:57;;;;;;;3.80;0.80;;;;;;;9.84;76.06;98551.19;5047148;28;20063;-64
2021/05/26 00:17:22;;;;;;;2.33;0.90;;;;;;;9.88;76.21;98543.22;5047096;28;20018;-64
2021/05/26 00:19:48;;;;;;;8.55;1.85;;;;;;;9.92;76.13;98547.53;5048310;28;20023;-64
2021/05/26 00:22:13;;;;;;;2.47;0.90;;;;;;;9.93;76.87;98537.84;5048311;28;20013;-64
2021/05/26 00:24:39;;;;;;;5.25;1.35;;;;;;;9.97;76.99;98531.66;5047470;28;20041;-64
2021/05/26 00:27:04;;;;;;;4.18;0.93;;;;;;;9.93;77.59;98535.22;5047695;28;20058;-64
2021/05/26 00:29:30;;;;;;;3.53;0.98;;;;;;;9.94;75.84;98531.72;5049433;28;20017;-64
2021/05/26 00:31:55;;;;;;;3.15;1.08;;;;;;;9.97;77.42;98526.41;5058670;28;20028;-64
2021/05/26 00:34:20;;;;;;;3.25;0.95;;;;;;;9.98;77.50;98529.00;5058416;28;20084;-64
2021/05/26 00:36:46;;;;;;;4.72;1.10;;;;;;;9.94;79.14;98531.72;5057221;28;20039;-64
2021/05/26 00:39:11;;;;;;;4.20;1.67;;;;;;;9.82;79.54;98521.44;5057062;28;20089;-64
2021/05/26 00:41:37;;;;;;;4.57;0.90;;;;;;;9.70;80.25;98517.25;5057133;28;20088;-64
2021/05/26 00:44:03;;;;;;;2.53;1.08;;;;;;;9.77;78.86;98529.41;5048029;28;20131;-64
2021/05/26 00:46:28;;;;;;;5.60;1.30;;;;;;;9.74;78.67;98518.06;5054699;28;20181;-64
2021/05/26 00:48:54;;;;;;;2.15;1.10;;;;;;;9.70;80.63;98511.13;5056772;28;20016;-64
2021/05/26 00:51:19;;;;;;;3.88;1.20;;;;;;;9.51;80.11;98505.34;5057184;28;20308;-64
2021/05/26 00:53:44;;;;;;;5.63;0.93;;;;;;;9.49;80.03;98501.00;5058290;28;20020;-64
2021/05/26 00:56:11;;;;;;;3.30;1.15;;;;;;;9.58;79.71;98500.81;5058760;28;20028;-64
2021/05/26 00:58:37;;;;;;;5.82;1.23;;;;;;;9.62;80.77;98497.28;5056572;28;20084;-64
2021/05/26 01:01:03;;;;;;;4.65;0.95;;;;;;;9.56;81.88;98492.13;5050873;28;20217;-64
2021/05/26 01:03:28;;;;;;;3.20;1.08;;;;;;;9.55;82.18;98487.78;5050313;28;20016;-64
2021/05/26 01:05:54;;;;;;;2.35;1.00;;;;;;;9.59;81.73;98489.44;5050283;28;20240;-64
2021/05/26 01:08:20;;;;;;;1.70;1.08;;;;;;;9.64;80.75;98484.97;5053864;28;20025;-64
2021/05/26 01:10:46;;;;;;;1.38;0.82;;;;;;;9.66;81.30;98483.19;5050263;28;20063;-64
2021/05/26 01:13:13;;;;;;;3.35;1.05;;;;;;;9.64;81.00;98485.84;5050447;28;20021;-64
2021/05/26 01:15:39;;;;;;;4.85;1.42;;;;;;;9.61;80.69;98479.75;5051732;28;20316;-64
2021/05/26 01:18:18;;;;;;;2.42;0.68;;;;;;;9.67;79.91;98474.38;5050048;28;20021;-64
2021/05/26 01:20:43;;;;;;;3.20;0.85;;;;;;;9.69;80.96;98477.88;5057506;28;20024;-64
2021/05/26 01:23:09;;;;;;;6.05;2.65;;;;;;;9.70;81.55;98469.06;5058642;28;20017;-64
2021/05/26 01:25:34;;;;;;;4.45;1.00;;;;;;;9.69;81.66;98468.25;5057502;28;20287;-64
2021/05/26 01:27:59;;;;;;;3.85;1.00;;;;;;;9.71;80.30;98466.44;5061855;28;20013;-64
2021/05/26 01:30:25;;;;;;;2.72;0.93;;;;;;;9.76;80.70;98458.47;5058630;28;20024;-64
2021/05/26 01:32:53;;;;;;;2.63;0.95;;;;;;;9.78;80.34;98459.31;5054542;28;20084;-64
2021/05/26 01:35:20;;;;;;;3.15;1.20;;;;;;;9.84;79.94;98451.31;5057209;28;20300;-64
2021/05/26 01:37:47;;;;;;;4.35;1.10;;;;;;;9.85;80.18;98458.28;5049545;28;20021;-64
2021/05/26 01:40:16;;;;;;;3.00;0.90;;;;;;;9.92;79.73;98459.91;5049655;28;20021;-64
2021/05/26 01:42:41;;;;;;;2.38;0.55;;;;;;;9.95;79.29;98462.47;5050788;28;20327;-64
2021/05/26 01:45:09;;;;;;;4.85;0.90;;;;;;;9.95;79.51;98454.56;5049583;28;20025;-64
2021/05/26 01:47:35;;;;;;;2.00;0.82;;;;;;;9.92;79.51;98444.13;5059873;28;20044;-64
2021/05/26 01:50:01;;;;;;;2.63;0.80;;;;;;;9.89;79.17;98436.28;5061407;28;20063;-64
2021/05/26 01:52:26;;;;;;;3.33;0.90;;;;;;;9.89;78.97;98449.44;5058263;28;20041;-64
2021/05/26 01:54:52;;;;;;;5.72;1.23;;;;;;;9.85;79.52;98442.50;5060727;28;20040;-64
2021/05/26 01:57:18;;;;;;;5.18;1.35;;;;;;;9.85;79.47;98451.28;5059316;28;20021;-64
2021/05/26 01:59:43;;;;;;;2.83;0.80;;;;;;;9.83;79.71;98452.19;5060353;28;20017;-64
2021/05/26 02:02:09;;;;;;;4.82;1.35;;;;;;;9.77;79.17;98449.66;5054029;28;20088;-64
2021/05/26 02:04:34;;;;;;;4.50;1.05;;;;;;;9.68;80.30;98444.63;5050962;28;20295;-64
2021/05/26 02:07:11;;;;;;;6.75;1.40;;;;;;;9.60;80.00;98447.38;5049831;28;20035;-64
2021/05/26 02:09:37;;;;;;;4.18;1.25;;;;;;;9.55;80.99;98441.31;5050321;28;20024;-64
2021/05/26 02:12:23;;;;;;;3.47;1.10;;;;;;;9.57;80.91;98436.91;5049032;28;20021;-64
2021/05/26 02:14:57;;;;;;;5.50;1.20;;;;;;;9.57;81.56;98436.03;5060510;28;20025;-64
2021/05/26 02:17:22;;;;;;;4.75;1.90;;;;;;;9.60;81.18;98436.00;5055568;28;20305;-64
2021/05/26 02:19:49;;;;;;;2.95;1.35;;;;;;;9.58;81.77;98432.50;5058661;28;20032;-64
2021/05/26 02:22:15;;;;;;;4.25;1.45;;;;;;;9.57;81.32;98420.28;5058953;28;20037;-64
2021/05/26 02:24:42;;;;;;;2.63;1.20;;;;;;;9.56;81.02;98423.81;5057757;28;20112;-64
2021/05/26 02:27:08;;;;;;;4.72;1.30;;;;;;;9.60;81.38;98426.34;5059968;28;20021;-64
2021/05/26 02:29:33;;;;;;;6.72;1.55;;;;;;;9.60;81.28;98410.59;5048457;28;20053;-64
2021/05/26 02:31:59;;;;;;;3.85;1.20;;;;;;;9.70;80.73;98411.25;5047939;28;20029;-64
2021/05/26 02:34:25;;;;;;;3.88;1.15;;;;;;;9.69;81.55;98414.81;5049449;28;20270;-64
2021/05/26 02:36:50;;;;;;;3.00;1.05;;;;;;;9.65;82.07;98408.72;5050834;28;20088;-64
2021/05/26 02:39:15;;;;;;;4.63;1.00;;;;;;;9.60;82.57;98418.47;5051131;28;20143;-64
2021/05/26 02:41:41;;;;;;;2.63;1.20;;;;;;;9.67;82.76;98411.31;5055293;28;20032;-64
2021/05/26 02:44:07;;;;;;;4.22;1.10;;;;;;;9.66;82.51;98415.72;5057325;28;20076;-64
2021/05/26 02:46:32;;;;;;;3.35;1.08;;;;;;;9.64;83.13;98422.78;5058352;28;20239;-64
2021/05/26 02:48:58;;;;;;;6.35;1.45;;;;;;;9.69;82.75;98427.94;5058472;28;20235;-64
2021/05/26 02:51:24;;;;;;;5.05;1.42;;;;;;;9.69;83.19;98423.56;5060272;28;20016;-64
2021/05/26 02:53:49;;;;;;;4.07;1.50;;;;;;;9.67;83.75;98421.84;5058624;28;20035;-64
2021/05/26 02:56:15;;;;;;;2.28;1.08;;;;;;;9.71;83.48;98418.28;5058354;28;20024;-64
2021/05/26 02:58:41;;;;;;;3.15;1.10;;;;;;;9.70;84.32;98419.16;5054137;28;20029;-64
2021/05/26 03:01:06;;;;;;;3.08;1.15;;;;;;;9.67;84.23;98406.06;5055747;28;20025;-64
2021/05/26 03:03:32;;;;;;;4.13;0.95;;;;;;;9.67;84.60;98400.81;5058071;28;20017;-65
2021/05/26 03:05:58;;;;;;;7.13;1.50;;;;;;;9.64;84.48;98406.13;5059678;28;20370;-64
2021/05/26 03:08:23;;;;;;;4.53;1.65;;;;;;;9.69;83.64;98406.91;5058064;28;20064;-64
2021/05/26 03:10:49;;;;;;;4.88;1.20;;;;;;;9.78;83.46;98398.84;5063333;28;20035;-64
2021/05/26 03:13:15;;;;;;;5.50;1.23;;;;;;;9.73;84.15;98392.81;5059192;28;20024;-64
2021/05/26 03:15:40;;;;;;;2.95;1.00;;;;;;;9.73;84.07;98395.44;5059429;28;20021;-64
2021/05/26 03:18:06;;;;;;;6.35;1.50;;;;;;;9.86;84.31;98397.81;5055616;28;20018;-64
2021/05/26 03:20:32;;;;;;;5.47;0.98;;;;;;;9.91;83.55;98389.81;5053699;28;20029;-64
2021/05/26 03:22:58;;;;;;;4.00;1.40;;;;;;;9.79;84.64;98392.69;5056246;28;20373;-64
2021/05/26 03:25:24;;;;;;;5.22;1.23;;;;;;;9.89;84.16;98388.97;5055268;28;20045;-64
2021/05/26 03:27:50;;;;;;;5.50;1.75;;;;;;;9.88;84.10;98368.84;5057949;28;20025;-64
2021/05/26 03:30:17;;;;;;;5.68;1.40;;;;;;;9.92;84.06;98365.25;5059081;28;20338;-64
2021/05/26 03:32:43;;;;;;;3.78;1.10;;;;;;;9.79;84.57;98363.78;5052819;28;20059;-64
2021/05/26 03:35:11;;;;;;;3.97;1.20;;;;;;;9.75;84.04;98362.13;5058222;28;20316;-64
2021/05/26 03:37:37;;;;;;;3.42;0.90;;;;;;;9.72;84.41;98370.06;5056912;28;20017;-64
2021/05/26 03:40:07;;;;;;;4.53;1.27;;;;;;;9.73;84.56;98367.41;5057832;28;20123;-64
2021/05/26 03:42:33;;;;;;;3.50;1.15;;;;;;;9.89;84.11;98367.94;5050063;28;20040;-64
2021/05/26 03:44:58;;;;;;;3.63;1.35;;;;;;;9.79;84.14;98358.53;5043967;28;20312;-64
2021/05/26 03:47:24;;;;;;;5.80;1.38;;;;;;;9.78;85.00;98356.81;5046289;28;20013;-64
2021/05/26 03:49:50;;;;;;;7.28;1.63;;;;;;;9.77;84.99;98345.41;5048511;28;20017;-64
2021/05/26 03:52:15;;;;;;;4.18;1.17;;;;;;;9.81;84.56;98346.22;5042161;28;20056;-64
2021/05/26 03:54:40;;;;;;;5.10;1.20;;;;;;;9.86;84.99;98354.88;5042943;28;20028;-64
2021/05/26 03:57:07;;;;;;;5.60;1.52;;;;;;;9.77;85.11;98355.06;5055547;28;20025;-64
2021/05/26 03:59:32;;;;;;;4.68;1.38;;;;;;;9.80;85.21;98337.47;5062347;28;20348;-64
2021/05/26 04:01:58;;;;;;;5.57;1.55;;;;;;;9.74;85.36;98344.59;5062556;28;20025;-64
2021/05/26 04:04:24;;;;;;;7.35;1.60;;;;;;;9.76;84.99;98343.69;5062329;28;20025;-64
2021/05/26 04:06:49;;;;;;;6.32;1.67;;;;;;;9.80;84.96;98336.59;5062514;28;20034;-64
2021/05/26 04:09:15;;;;;;;5.97;1.63;;;;;;;9.89;84.64;98339.03;5062738;28;20342;-64
2021/05/26 04:11:41;;;;;;;9.90;1.60;;;;;;;9.88;84.74;98329.44;5050344;28;20217;-64
2021/05/26 04:14:07;;;;;;;7.50;1.10;;;;;;;9.90;84.65;98320.59;5042732;28;20029;-64
2021/05/26 04:16:33;;;;;;;4.75;1.42;;;;;;;9.88;84.88;98316.28;5042659;28;20021;-64
2021/05/26 04:18:59;;;;;;;3.28;1.48;;;;;;;9.85;84.68;98326.88;5042554;28;20021;-64
2021/05/26 04:21:24;;;;;;;9.18;1.70;;;;;;;9.87;84.74;98332.97;5044071;28;20029;-64
2021/05/26 04:23:50;;;;;;;5.18;1.38;;;;;;;9.85;84.53;98325.09;5042688;28;20071;-64
2021/05/26 04:26:15;;;;;;;8.48;1.30;;;;;;;9.88;84.88;98324.16;5042549;28;20363;-64
2021/05/26 04:28:45;;;;;;;4.70;1.00;;;;;;;9.88;84.61;98327.69;5044074;28;20017;-64
2021/05/26 04:31:12;;;;;;;7.90;1.50;;;;;;;9.82;85.14;98332.19;5042227;28;20351;-64
2021/05/26 04:33:39;;;;;;;3.47;1.15;;;;;;;9.89;85.43;98326.75;5048591;28;20012;-64
2021/05/26 04:36:05;;;;;;;6.13;1.40;;;;;;;9.92;85.37;98323.19;5063332;28;20058;-64
2021/05/26 04:38:30;;;;;;;2.90;1.00;;;;;;;9.93;84.80;98319.66;5065944;28;20047;-64
2021/05/26 04:40:56;;;;;;;8.55;1.48;;;;;;;9.96;84.54;98319.59;5054340;28;20088;-64
2021/05/26 04:43:21;;;;;;;10.57;1.50;;;;;;;9.96;84.71;98324.84;5067106;28;20032;-64
2021/05/26 04:45:47;;;;;;;2.92;1.13;;;;;;;9.99;84.73;98322.16;5067154;28;20025;-64
2021/05/26 04:48:12;;;;;;;7.45;1.63;;;;;;;10.04;83.93;98329.06;5067061;28;20346;-64
2021/05/26 04:50:37;;;;;;;6.68;1.40;;;;;;;10.04;84.66;98323.81;5067045;28;20059;-64
2021/05/26 04:53:03;;;;;;;5.43;1.20;;;;;;;10.03;84.23;98316.81;5067022;28;20021;-64
2021/05/26 04:55:29;;;;;;;4.65;1.75;;;;;;;10.12;83.92;98315.75;5066968;28;20044;-64
2021/05/26 04:58:02;;;;;;;2.67;1.05;;;;;;;10.06;84.00;98318.53;5066873;28;20021;-64
2021/05/26 05:00:28;;;;;;;3.33;1.42;;;;;;;10.05;84.26;98320.28;5066942;28;20032;-64
2021/05/26 05:02:53;;;;;;;7.07;1.52;;;;;;;10.01;84.68;98323.00;5066823;28;20096;-64
2021/05/26 05:05:20;;;;;;;4.68;1.35;;;;;;;10.10;84.24;98314.94;5067029;28;20020;-64
2021/05/26 05:07:45;;;;;;;5.72;1.90;;;;;;;10.03;84.65;98313.31;5066951;28;20105;-64
2021/05/26 05:10:12;;;;;;;4.97;1.17;;;;;;;10.05;84.24;98306.25;5066676;28;20048;-64
2021/05/26 05:12:37;;;;;;;3.85;1.23;;;;;;;10.15;83.84;98310.44;5066881;28;20316;-64
2021/05/26 05:15:04;;;;;;;6.07;1.42;;;;;;;10.00;84.00;98308.13;5066617;28;20025;-64
2021/05/26 05:17:29;;;;;;;6.10;1.63;;;;;;;10.04;84.21;98297.53;5066470;28;20025;-64
2021/05/26 05:19:55;;;;;;;4.43;1.30;;;;;;;10.08;83.70;98298.31;5066480;28;20048;-64
2021/05/26 05:22:20;;;;;;;3.67;1.00;;;;;;;10.11;83.83;98299.13;5066508;28;20084;-64
2021/05/26 05:24:46;;;;;;;7.22;1.63;;;;;;;10.09;83.85;98305.31;5066246;28;20050;-64
2021/05/26 05:27:11;;;;;;;4.38;1.20;;;;;;;10.03;84.33;98301.03;5066371;28;20346;-64
2021/05/26 05:29:36;;;;;;;4.53;1.52;;;;;;;10.05;84.28;98301.00;5066306;28;20024;-64
2021/05/26 05:32:02;;;;;;;7.07;1.52;;;;;;;10.05;84.11;98288.72;5066281;28;20025;-64
2021/05/26 05:34:27;;;;;;;5.65;1.50;;;;;;;10.13;83.41;98297.31;5066266;28;20025;-64
2021/05/26 05:36:53;;;;;;;4.45;1.20;;;;;;;10.12;83.36;98294.72;5065083;28;20247;-64
2021/05/26 05:39:19;;;;;;;6.95;1.45;;;;;;;10.18;83.58;98305.09;5065241;28;20029;-64
2021/05/26 05:41:45;;;;;;;4.05;1.25;;;;;;;10.10;84.33;98293.91;5066046;28;20108;-64
2021/05/26 05:44:10;;;;;;;7.45;1.50;;;;;;;10.14;83.58;98299.06;5066062;28;20328;-64
2021/05/26 05:46:35;;;;;;;6.55;1.50;;;;;;;10.18;83.98;98297.22;5065999;28;20041;-64
2021/05/26 05:49:01;;;;;;;7.43;1.42;;;;;;;10.22;83.46;98296.28;5065172;28;20028;-64
2021/05/26 05:51:26;;;;;;;7.13;1.38;;;;;;;10.26;83.25;98288.28;5065927;28;20032;-64
2021/05/26 05:53:52;;;;;;;5.28;1.10;;;;;;;10.22;83.94;98289.22;5065960;28;20052;-64
2021/05/26 05:56:17;;;;;;;6.35;1.63;;;;;;;10.19;84.21;98293.69;5065771;28;20078;-64
2021/05/26 05:58:43;;;;;;;4.05;1.38;;;;;;;10.22;84.54;98291.84;5065791;28;20220;-64
2021/05/26 06:01:08;;;;;;;8.30;1.60;;;;;;;10.23;84.05;98287.47;5065770;28;20032;-64
2021/05/26 06:03:33;;;;;;;7.00;1.58;;;;;;;10.30;83.63;98284.66;5065625;28;20063;-64
2021/05/26 06:05:59;;;;;;;4.65;1.83;;;;;;;10.35;83.33;98289.81;5065660;28;20017;-64
2021/05/26 06:08:24;;;;;;;5.80;1.40;;;;;;;10.45;83.16;98286.06;5065639;28;20036;-64
2021/05/26 06:10:50;;;;;;;5.78;1.30;;;;;;;10.49;83.27;98295.59;5065547;28;20067;-64
2021/05/26 06:13:15;;;;;;;3.95;1.17;;;;;;;10.45;83.74;98293.94;5065502;28;20084;-64
2021/05/26 06:15:40;;;;;;;6.15;1.20;;;;;;;10.58;82.00;98279.59;5065382;28;20036;-64
2021/05/26 06:18:06;;;;;;;3.95;0.93;;;;;;;10.52;82.63;98285.00;5065417;28;20024;-64
2021/05/26 06:20:32;;;;;;;2.60;1.15;;;;;;;10.51;81.49;98310.44;5064198;28;20050;-64
2021/05/26 06:22:57;;;;;;;6.35;1.30;;;;;;;10.54;81.90;98301.63;5065328;28;20048;-64
2021/05/26 06:25:23;;;;;;;7.05;1.50;;;;;;;10.60;82.59;98304.09;5065103;28;20103;-64
2021/05/26 06:27:48;;;;;;;8.88;2.10;;;;;;;10.49;82.15;98307.00;5065254;28;20044;-64
2021/05/26 06:30:14;;;;;;;11.00;2.60;;;;;;;10.42;84.15;98294.03;5065183;28;20065;-64
2021/05/26 06:32:40;;;;;;;6.50;1.92;;;;;;;10.54;83.42;98296.34;5065117;28;20087;-64
2021/05/26 06:35:06;;;;;;;6.97;1.52;;;;;;;10.57;83.66;98298.91;5065074;28;20394;-64
2021/05/26 06:37:31;;;;;;;4.70;1.48;;;;;;;10.64;83.13;98296.06;5064986;28;20320;-64
2021/05/26 06:39:57;;;;;;;10.05;2.20;;;;;;;10.71;83.07;98283.63;5064987;28;20088;-64
2021/05/26 06:42:22;;;;;;;4.82;1.40;;;;;;;10.80;83.16;98280.78;5064988;28;20025;-64
2021/05/26 06:44:48;;;;;;;5.35;1.83;;;;;;;10.83;82.58;98280.69;5064906;28;20032;-64
2021/05/26 06:47:13;;;;;;;8.07;1.60;;;;;;;10.82;81.48;98286.84;5064862;28;20013;-64
2021/05/26 06:49:39;;;;;;;5.38;1.40;;;;;;;10.95;81.37;98280.38;5064795;28;20024;-64
2021/05/26 06:52:04;;;;;;;6.68;1.60;;;;;;;11.01;81.85;98280.19;5064756;28;20373;-64
2021/05/26 06:54:30;;;;;;;5.97;1.70;;;;;;;10.98;81.73;98277.63;5064687;28;20032;-64
2021/05/26 06:56:55;;;;;;;7.13;1.95;;;;;;;11.05;81.35;98286.25;5064623;28;20021;-64
2021/05/26 06:59:21;;;;;;;7.65;1.40;;;;;;;11.06;81.67;98286.22;5064609;28;20024;-64
2021/05/26 07:01:47;;;;;;;7.72;1.70;;;;;;;11.15;81.29;98272.81;5064819;28;20043;-64
2021/05/26 07:04:12;;;;;;;6.80;1.50;;;;;;;11.00;81.51;98283.75;5064486;28;20024;-64
2021/05/26 07:06:38;;;;;;;6.80;1.55;;;;;;;11.09;80.87;98280.00;5064479;28;20044;-64
2021/05/26 07:09:04;;;;;;;7.38;1.65;;;;;;;11.06;81.51;98272.16;5064483;28;20025;-64
2021/05/26 07:11:29;;;;;;;6.85;1.50;;;;;;;10.98;81.72;98277.63;5064402;28;20197;-64
2021/05/26 07:13:55;;;;;;;4.65;1.50;;;;;;;11.01;81.78;98274.91;5064396;28;20122;-64
2021/05/26 07:16:20;;;;;;;5.15;1.33;;;;;;;11.00;81.61;98270.56;5064521;28;20104;-64
2021/05/26 07:18:47;;;;;;;6.60;1.50;;;;;;;10.87;81.79;98271.81;5064273;28;20112;-64
2021/05/26 07:21:14;;;;;;;4.10;1.30;;;;;;;10.92;81.52;98262.03;5064226;28;20320;-64
2021/05/26 07:23:40;;;;;;;4.85;1.58;;;;;;;10.98;81.93;98270.63;5064029;28;20017;-64
2021/05/26 07:26:06;;;;;;;6.80;1.38;;;;;;;11.10;81.28;98258.88;5064051;28;20094;-64
2021/05/26 07:28:32;;;;;;;4.55;1.30;;;;;;;11.17;80.21;98260.44;5064067;28;20055;-64
2021/05/26 07:30:58;;;;;;;5.97;1.30;;;;;;;11.23;80.55;98265.53;5064087;28;20080;-64
2021/05/26 07:33:23;;;;;;;6.22;1.45;;;;;;;11.13;81.17;98273.75;5064107;28;20032;-64
2021/05/26 07:35:48;;;;;;;6.72;1.42;;;;;;;11.01;82.10;98258.28;5063942;28;20092;-64
2021/05/26 07:38:14;;;;;;;4.20;1.60;;;;;;;11.02;81.27;98265.25;5063995;28;20088;-64
2021/05/26 07:40:39;;;;;;;4.90;1.48;;;;;;;10.94;81.45;98270.72;5063956;28;20044;-64
2021/05/26 07:43:05;;;;;;;4.38;1.48;;;;;;;10.99;81.33;98271.50;5063916;28;20070;-64
2021/05/26 07:45:30;;;;;;;2.90;0.93;;;;;;;10.98;81.24;98259.19;5063985;28;20024;-64
2021/05/26 07:47:56;;;;;;;5.30;1.45;;;;;;;11.03;82.12;98262.59;5063948;28;20024;-64
2021/05/26 07:50:21;;;;;;;9.27;1.58;;;;;;;10.99;81.77;98260.94;5064144;28;20028;-64
2021/05/26 07:52:47;;;;;;;5.68;1.40;;;;;;;11.01;81.42;98259.13;5063865;28;20211;-64
2021/05/26 07:55:13;;;;;;;3.72;1.20;;;;;;;11.12;81.07;98251.81;5063836;28;20025;-64
2021/05/26 07:57:39;;;;;;;5.72;1.13;;;;;;;11.17;82.07;98257.78;5064015;28;20024;-64
2021/05/26 08:00:06;;;;;;;4.60;1.25;;;;;;;11.19;80.75;98253.38;5064033;28;20415;-64
2021/05/26 08:02:32;;;;;;;3.42;1.15;;;;;;;11.01;82.05;98259.13;5063727;28;20020;-64
2021/05/26 08:04:57;;;;;;;2.95;1.00;;;;;;;11.06;82.23;98259.88;5063855;28;20017;-64
2021/05/26 08:07:23;;;;;;;3.28;0.90;;;;;;;10.98;82.56;98261.84;5063794;28;20021;-64
2021/05/26 08:09:48;;;;;;;2.35;1.23;;;;;;;11.07;82.00;98258.97;5063699;28;20373;-64
2021/05/26 08:12:14;;;;;;;3.78;1.25;;;;;;;11.16;82.07;98252.56;5066617;28;20071;-64
2021/05/26 08:14:39;;;;;;;2.28;1.00;;;;;;;11.15;82.82;98256.13;5067763;28;20037;-64
2021/05/26 08:17:05;;;;;;;1.98;0.93;;;;;;;11.09;81.07;98261.56;5067609;28;20044;-64
2021/05/26 08:19:31;;;;;;;5.78;1.10;;;;;;;11.14;82.41;98250.00;5067630;28;20032;-64
2021/05/26 08:21:57;;;;;;;2.20;1.13;;;;;;;11.13;82.67;98247.41;5067595;28;20025;-64
2021/05/26 08:24:22;;;;;;;2.25;0.93;;;;;;;11.21;82.30;98248.06;5067374;28;20398;-64
2021/05/26 08:26:49;;;;;;;1.08;0.85;;;;;;;11.21;82.00;98237.50;5067543;28;20033;-64
2021/05/26 08:29:15;;;;;;;1.27;0.93;;;;;;;11.05;81.96;98239.72;5067477;28;20024;-64
2021/05/26 08:31:41;;;;;;;2.35;0.77;;;;;;;10.98;82.60;98235.50;5067429;28;20074;-64
2021/05/26 08:34:06;;;;;;;2.75;1.00;;;;;;;11.04;82.34;98235.34;5067332;28;20021;-64
2021/05/26 08:36:32;;;;;;;1.20;0.75;;;;;;;11.21;81.76;98230.50;5067287;28;20051;-64
2021/05/26 08:38:57;;;;;;;2.72;1.02;;;;;;;11.16;81.36;98232.38;5067286;28;20056;-64
2021/05/26 08:41:23;;;;;;;2.40;1.02;;;;;;;11.01;82.51;98227.53;5067248;28;20038;-64
2021/05/26 08:43:49;;;;;;;1.33;0.80;;;;;;;11.02;82.08;98234.53;5067465;28;20305;-64
2021/05/26 08:46:15;;;;;;;3.80;1.05;;;;;;;11.02;82.24;98239.81;5067388;28;20204;-64
2021/05/26 08:48:42;;;;;;;3.85;1.08;;;;;;;10.95;83.05;98243.53;5067090;28;20078;-64
2021/05/26 08:51:10;;;;;;;3.63;1.20;;;;;;;10.94;83.35;98228.59;5067056;28;20017;-64
2021/05/26 08:53:36;;;;;;;2.47;1.00;;;;;;;10.84;83.48;98224.50;5065835;28;20228;-64
2021/05/26 08:56:01;;;;;;;1.85;0.90;;;;;;;10.92;83.06;98227.81;5067147;28;20017;-64
2021/05/26 08:58:27;;;;;;;3.92;1.25;;;;;;;10.85;83.43;98231.47;5066946;28;20366;-64
2021/05/26 09:00:52;;;;;;;3.00;1.10;;;;;;;10.90;82.87;98226.97;5066886;28;20088;-64
2021/05/26 09:03:18;;;;;;;1.65;0.95;;;;;;;10.93;83.63;98234.78;5066911;28;20020;-64
2021/05/26 09:05:53;;;;;;;5.28;1.13;;;;;;;11.13;83.26;98227.19;5066785;28;20040;-64
2021/05/26 09:08:21;;;;;;;2.03;1.20;;;;;;;11.05;83.22;98223.91;5066776;28;20332;-64
2021/05/26 09:10:47;;;;;;;2.55;1.08;;;;;;;10.95;83.23;98230.34;5066923;28;20025;-64
2021/05/26 09:13:36;;;;;;;0.88;0.63;;;;;;;11.13;83.36;98226.34;5066646;28;20021;-64
2021/05/26 09:16:22;;;;;;;1.33;1.05;;;;;;;11.07;83.09;98227.34;5066617;28;20355;-64
2021/05/26 09:18:54;;;;;;;4.15;1.30;;;;;;;11.09;83.63;98222.91;5066023;28;20041;-64
2021/05/26 09:21:41;;;;;;;6.35;1.17;;;;;;;11.06;83.61;98220.38;5066464;28;20039;-64
2021/05/26 09:24:28;;;;;;;1.83;1.00;;;;;;;11.06;83.61;98224.75;5065318;28;20029;-64
2021/05/26 09:26:56;;;;;;;4.00;1.23;;;;;;;11.02;83.79;98229.28;5066492;28;20040;-64
2021/05/26 09:29:35;;;;;;;4.78;1.08;;;;;;;11.04;84.20;98226.59;5066350;28;20029;-64
2021/05/26 09:32:21;;;;;;;3.53;1.05;;;;;;;11.02;84.11;98224.00;5066308;28;20054;-64
2021/05/26 09:34:54;;;;;;;2.38;0.98;;;;;;;11.04;83.63;98227.44;5066293;28;20036;-64
2021/05/26 09:37:24;;;;;;;1.92;1.15;;;;;;;11.00;84.80;98220.53;5066173;28;20033;-64
2021/05/26 09:39:53;;;;;;;5.00;1.17;;;;;;;10.99;84.79;98226.72;5066444;28;20276;-64
2021/05/26 09:42:30;;;;;;;1.88;1.20;;;;;;;11.06;84.92;98222.13;5066369;28;20021;-64
2021/05/26 09:45:19;;;;;;;1.85;1.10;;;;;;;11.08;84.20;98218.56;5066167;28;20342;-64
2021/05/26 09:47:47;;;;;;;2.17;1.00;;;;;;;11.17;84.65;98222.72;5066021;28;20032;-64
2021/05/26 09:50:35;;;;;;;1.98;1.05;;;;;;;11.09;85.03;98220.28;5065965;28;20024;-64
2021/05/26 09:53:07;;;;;;;3.38;0.90;;;;;;;11.11;84.52;98218.50;5065955;28;20032;-64
2021/05/26 09:55:37;;;;;;;1.85;1.23;;;;;;;11.15;84.89;98220.13;5065926;28;20044;-64
2021/05/26 09:58:09;;;;;;;3.15;1.05;;;;;;;11.28;84.26;98221.50;5065744;28;20043;-64
2021/05/26 10:00:36;;;;;;;2.22;1.05;;;;;;;11.26;83.94;98220.66;5065830;28;20059;-64
2021/05/26 10:03:02;;;;;;;3.63;1.15;;;;;;;11.23;84.43;98212.84;5065738;28;20292;-64
2021/05/26 10:05:27;;;;;;;2.90;1.20;;;;;;;11.24;84.20;98230.41;5065687;28;20040;-64
2021/05/26 10:07:56;;;;;;;3.50;1.02;;;;;;;11.21;83.70;98212.06;5065694;28;20189;-64
2021/05/26 10:10:23;;;;;;;2.83;1.15;;;;;;;11.25;83.25;98221.59;5065599;28;20045;-64
2021/05/26 10:12:53;;;;;;;3.95;1.33;;;;;;;11.35;84.93;98222.16;5065535;28;20275;-64
2021/05/26 10:15:21;;;;;;;3.53;1.35;;;;;;;11.47;83.78;98227.97;5065465;28;20025;-64
2021/05/26 10:17:50;;;;;;;4.82;1.50;;;;;;;11.44;84.52;98222.78;5065325;28;20033;-64
2021/05/26 10:20:17;;;;;;;3.65;1.27;;;;;;;11.52;83.70;98225.19;5065330;28;20025;-64
2021/05/26 10:22:44;;;;;;;1.50;0.93;;;;;;;11.44;85.06;98228.06;5065283;28;20032;-64
2021/05/26 10:25:14;;;;;;;3.67;1.30;;;;;;;11.55;84.10;98230.38;5065282;28;20223;-64
2021/05/26 10:27:44;;;;;;;2.00;1.20;;;;;;;11.57;84.53;98224.13;5065248;28;20017;-64
2021/05/26 10:30:10;;;;;;;2.20;1.00;;;;;;;11.73;83.39;98220.16;5065202;28;20041;-64
2021/05/26 10:33:05;;;;;;;3.00;1.20;;;;;;;11.79;83.06;98225.25;5065135;28;20036;-64
2021/05/26 10:35:53;;;;;;;1.83;1.27;;;;;;;11.74;82.75;98219.25;5063647;28;20033;-64
2021/05/26 10:38:19;;;;;;;1.73;1.10;;;;;;;11.79;82.53;98216.47;5065023;28;20095;-64
2021/05/26 10:40:58;;;;;;;5.47;0.90;;;;;;;11.71;83.10;98224.63;5064986;28;20025;-64
2021/05/26 10:43:23;;;;;;;2.08;1.13;;;;;;;11.80;83.28;98226.13;5065001;28;20017;-64
2021/05/26 10:45:50;;;;;;;2.80;1.13;;;;;;;11.84;83.84;98223.34;5064902;28;20066;-64
2021/05/26 10:48:44;;;;;;;2.08;0.93;;;;;;;12.04;82.45;98225.34;5064822;28;20088;-64
2021/05/26 10:51:11;;;;;;;1.30;1.02;;;;;;;12.12;82.17;98218.91;5064763;28;20135;-64
2021/05/26 10:53:45;;;;;;;3.25;1.25;;;;;;;12.22;81.95;98220.34;5064730;28;20024;-64
2021/05/26 10:56:34;;;;;;;5.05;1.42;;;;;;;12.34;82.50;98214.66;5064702;28;20052;-64
2021/05/26 10:59:15;;;;;;;1.83;0.90;;;;;;;12.39;82.17;98212.75;5064230;28;20236;-64
2021/05/26 11:02:03;;;;;;;3.90;1.13;;;;;;;12.77;81.42;98209.69;5064585;28;20088;-64
2021/05/26 11:04:32;;;;;;;5.95;1.00;;;;;;;12.60;81.69;98217.28;5064583;28;20032;-64
2021/05/26 11:07:29;;;;;;;2.63;0.80;;;;;;;12.85;81.70;98206.78;5064498;28;20017;-64
2021/05/26 11:10:06;;;;;;;1.67;0.77;;;;;;;12.96;80.19;98210.75;5064782;28;20021;-64
2021/05/26 11:12:58;;;;;;;2.40;0.90;;;;;;;12.82;81.66;98207.72;5064458;28;20275;-64
2021/05/26 11:15:39;;;;;;;0.88;0.80;;;;;;;12.98;80.61;98202.78;5064188;28;20036;-64
2021/05/26 11:18:14;;;;;;;2.05;0.90;;;;;;;13.04;80.83;98206.09;5064234;28;20035;-64
2021/05/26 11:20:40;;;;;;;1.17;0.82;;;;;;;13.24;80.26;98210.66;5064263;28;20021;-64
2021/05/26 11:23:14;;;;;;;1.38;0.95;;;;;;;13.13;79.58;98201.41;5064294;28;20035;-64
2021/05/26 11:25:56;;;;;;;2.72;0.70;;;;;;;12.99;80.00;98204.53;5064019;28;20064;-64
2021/05/26 11:28:32;;;;;;;;;;;;;;;12.93;81.38;98196.78;5064600;28;20024;-64
2021/05/26 11:31:09;;;;;;;0.77;0.60;;;;;;;12.92;80.27;98198.56;5062989;28;19904;-64
2021/05/26 11:33:35;;;;;;;0.68;0.63;;;;;;;12.80;80.97;98213.97;5064201;28;20083;-64
2021/05/26 11:36:09;;;;;;;3.22;0.90;;;;;;;12.88;80.22;98215.44;5064000;28;20023;-64
2021/05/26 11:38:34;;;;;;;1.63;0.77;;;;;;;13.03;80.55;98207.00;5064050;28;20025;-64